Pagina principale
METAR-TAF:

METAR-TAF

Aeroporti :

Aeroporto di Klagenfurt

Klagenfurt, Austria

latitudine: 46-39N, longitudine: 014-20E, altezza: 448 m

Osservazione

Il bollettino è stato emesso 40 minuti fa, alle 09:50 UTC
Vento 2 kt da direzioni variabili
Temperature 17°C
Umidità 39%
Pressione 1022 hPa
Visibilità 10 km o più
Poco nuvoloso ad un'altezza di 7000 ft

METAR: LOWK 210950Z VRB02KT 9999 FEW070 17/03 Q1022 NOSIG

Ora: 12:30 (10:30 UTC)

Previsione

Il bollettino è stato emesso 5 ore e 15 minuti fa, alle 05:15 UTC
Previsione valida dal 21 alle 06 UTC al 22 alle 06 UTC
Vento 2 kt da direzioni variabili
Visibilità 10 km o più
nessuna nube inferiore a 1500 m e nessun cumulonembo

TAF: LOWK 210515Z 2106/2206 VRB02KT CAVOK TX22/2115Z TN05/2204Z

Osservazioni e previsioni meteorologiche di più di 4000 aeroporti (messaggi METAR e TAF).

Le stazioni disponibili sono rappresentate dai dischi gialli e rossi sulla carta.

Puntare il mouse per vedere il nome della stazione.

Clicca sopra per visualizzare le osservazioni e previsioni meteorologiche.

Per cambiare la mappa : fare clic sui pulsanti verdi con una croce nera per ingrandire, il pulsante verde con un trattino per diminuire, o sulla freccia verde per le mappe adiacenti.


METAR-TAF: